Time,TemperatureF,DewpointF,PressureIn,WindDirection,WindDirectionDegrees,WindSpeedMPH,WindSpeedGustMPH,Humidity,HourlyPrecipIn,Conditions,Clouds,dailyrainin,SoftwareType,DateUTC
2013-02-11 00:02:00,42.0,26.0,29.53,SE,132,6.0,12.0,53,0.01,,,0.31,,2013-02-11 05:02:00,
2013-02-11 00:32:00,42.0,26.0,29.53,SSE,153,5.0,12.0,52,0.01,,,0.31,,2013-02-11 05:32:00,
2013-02-11 01:02:00,43.0,26.0,29.52,SSE,154,6.0,12.0,51,0.00,,,0.31,,2013-02-11 06:02:00,
2013-02-11 01:32:00,44.0,27.0,29.51,SW,214,2.0,7.0,50,0.00,,,0.31,,2013-02-11 06:32:00,
2013-02-11 02:02:00,45.0,28.0,29.49,South,190,3.0,10.0,52,0.00,,,0.31,,2013-02-11 07:02:00,
2013-02-11 02:32:00,45.0,30.0,29.49,SW,214,5.0,14.0,56,0.00,,,0.31,,2013-02-11 07:32:00,
2013-02-11 03:32:00,44.0,38.0,29.49,SW,217,5.0,12.0,78,0.00,,,0.31,,2013-02-11 08:32:00,
2013-02-11 03:42:00,44.0,38.0,29.49,SW,217,5.0,12.0,78,0.00,,,0.31,,2013-02-11 08:42:00,
2013-02-11 03:52:00,44.0,38.0,29.49,SW,217,5.0,12.0,78,0.00,,,0.31,,2013-02-11 08:52:00,
2013-02-11 04:02:00,43.0,38.0,29.49,WSW,240,6.0,12.0,81,0.00,,,0.31,,2013-02-11 09:02:00,
2013-02-11 04:12:00,43.0,38.0,29.49,WSW,240,6.0,12.0,81,0.00,,,0.31,,2013-02-11 09:12:00,
2013-02-11 04:22:00,43.0,38.0,29.49,WSW,240,6.0,12.0,81,0.00,,,0.31,,2013-02-11 09:22:00,
2013-02-11 04:32:00,42.0,36.0,29.48,WSW,244,3.0,12.0,80,0.00,,,0.31,,2013-02-11 09:32:00,
2013-02-11 04:42:00,42.0,36.0,29.48,WSW,244,3.0,12.0,80,0.00,,,0.31,,2013-02-11 09:42:00,
2013-02-11 04:52:00,42.0,36.0,29.48,WSW,244,3.0,12.0,80,0.00,,,0.31,,2013-02-11 09:52:00,
2013-02-11 05:01:00,41.0,34.0,29.48,SW,232,10.0,21.0,76,0.00,,,0.31,,2013-02-11 10:01:00,
2013-02-11 05:11:00,41.0,34.0,29.48,SW,232,10.0,21.0,76,0.00,,,0.31,,2013-02-11 10:11:00,
2013-02-11 05:21:00,41.0,34.0,29.48,SW,232,10.0,21.0,76,0.00,,,0.31,,2013-02-11 10:21:00,
2013-02-11 05:32:00,40.0,34.0,29.48,WSW,256,6.0,16.0,78,0.00,,,0.31,,2013-02-11 10:32:00,
2013-02-11 05:42:00,40.0,34.0,29.48,WSW,256,6.0,16.0,78,0.00,,,0.31,,2013-02-11 10:42:00,
2013-02-11 05:52:00,40.0,34.0,29.48,WSW,256,6.0,16.0,78,0.00,,,0.31,,2013-02-11 10:52:00,
2013-02-11 06:02:00,39.0,33.0,29.49,West,275,9.0,18.0,80,0.00,,,0.31,,2013-02-11 11:02:00,
2013-02-11 06:11:00,39.0,33.0,29.49,West,275,9.0,18.0,80,0.00,,,0.31,,2013-02-11 11:11:00,
2013-02-11 06:22:00,39.0,33.0,29.49,West,275,9.0,18.0,80,0.00,,,0.31,,2013-02-11 11:22:00,
2013-02-11 06:32:00,37.0,32.0,29.50,SSW,213,8.0,26.0,81,0.01,,,0.32,,2013-02-11 11:32:00,
2013-02-11 06:42:00,37.0,32.0,29.50,SSW,213,8.0,26.0,81,0.01,,,0.32,,2013-02-11 11:42:00,
2013-02-11 06:52:00,37.0,32.0,29.50,SSW,213,8.0,26.0,81,0.01,,,0.32,,2013-02-11 11:52:00,
2013-02-11 07:03:00,37.0,32.0,29.50,SW,228,9.0,22.0,81,0.01,,,0.32,,2013-02-11 12:03:00,
2013-02-11 07:12:00,37.0,32.0,29.50,SW,228,9.0,22.0,81,0.01,,,0.32,,2013-02-11 12:12:00,
2013-02-11 07:22:00,37.0,32.0,29.50,SW,228,9.0,22.0,81,0.01,,,0.32,,2013-02-11 12:22:00,
2013-02-11 07:32:00,36.0,30.0,29.52,WSW,257,6.0,20.0,80,0.00,,,0.32,,2013-02-11 12:32:00,
2013-02-11 07:42:00,36.0,30.0,29.52,WSW,257,6.0,20.0,80,0.00,,,0.32,,2013-02-11 12:42:00,
2013-02-11 07:52:00,36.0,30.0,29.52,WSW,257,6.0,20.0,80,0.00,,,0.32,,2013-02-11 12:52:00,
2013-02-11 08:02:00,36.0,30.0,29.52,WSW,256,9.0,24.0,78,0.00,,,0.32,,2013-02-11 13:02:00,
2013-02-11 08:12:00,36.0,30.0,29.52,WSW,256,9.0,24.0,78,0.00,,,0.32,,2013-02-11 13:12:00,
2013-02-11 08:22:00,36.0,30.0,29.52,WSW,256,9.0,24.0,78,0.00,,,0.32,,2013-02-11 13:22:00,
2013-02-11 08:33:00,35.0,29.0,29.52,SW,225,10.0,24.0,77,0.00,,,0.32,,2013-02-11 13:33:00,
2013-02-11 08:42:00,35.0,29.0,29.52,SW,225,10.0,24.0,77,0.00,,,0.32,,2013-02-11 13:42:00,
2013-02-11 08:52:00,35.0,29.0,29.52,SW,225,10.0,24.0,77,0.00,,,0.32,,2013-02-11 13:52:00,
2013-02-11 09:02:00,34.0,28.0,29.53,SW,234,8.0,24.0,79,0.00,,,0.32,,2013-02-11 14:02:00,
2013-02-11 09:12:00,34.0,28.0,29.53,SW,234,8.0,24.0,79,0.00,,,0.32,,2013-02-11 14:12:00,
2013-02-11 09:22:00,34.0,28.0,29.53,SW,234,8.0,24.0,79,0.00,,,0.32,,2013-02-11 14:22:00,
2013-02-11 09:33:00,34.0,28.0,29.53,SW,233,9.0,22.0,79,0.00,,,0.32,,2013-02-11 14:33:00,
2013-02-11 09:42:00,34.0,28.0,29.53,SW,233,9.0,22.0,79,0.00,,,0.32,,2013-02-11 14:42:00,
2013-02-11 09:53:00,34.0,28.0,29.53,SW,233,9.0,22.0,79,0.00,,,0.32,,2013-02-11 14:53:00,
2013-02-11 10:02:00,33.0,28.0,29.54,SW,236,10.0,28.0,81,0.00,,,0.32,,2013-02-11 15:02:00,
2013-02-11 10:11:00,33.0,28.0,29.54,SW,236,10.0,28.0,81,0.00,,,0.32,,2013-02-11 15:11:00,
2013-02-11 10:22:00,33.0,28.0,29.54,SW,236,10.0,28.0,81,0.00,,,0.32,,2013-02-11 15:22:00,
2013-02-11 10:32:00,33.0,28.0,29.54,West,267,9.0,21.0,80,0.00,,,0.32,,2013-02-11 15:32:00,
2013-02-11 10:42:00,33.0,28.0,29.54,West,267,9.0,21.0,80,0.00,,,0.32,,2013-02-11 15:42:00,
2013-02-11 10:52:00,33.0,28.0,29.54,West,267,9.0,21.0,80,0.00,,,0.32,,2013-02-11 15:52:00,
2013-02-11 11:02:00,33.0,25.0,29.55,SW,228,12.0,24.0,72,0.00,,,0.32,,2013-02-11 16:02:00,
2013-02-11 11:12:00,33.0,25.0,29.55,SW,228,12.0,24.0,72,0.00,,,0.32,,2013-02-11 16:12:00,
2013-02-11 11:22:00,33.0,25.0,29.55,SW,228,12.0,24.0,72,0.00,,,0.32,,2013-02-11 16:22:00,
2013-02-11 11:32:00,33.0,22.0,29.56,WSW,245,7.0,17.0,64,0.00,,,0.32,,2013-02-11 16:32:00,
2013-02-11 11:42:00,33.0,22.0,29.56,WSW,245,7.0,17.0,64,0.00,,,0.32,,2013-02-11 16:42:00,
2013-02-11 11:53:00,33.0,22.0,29.56,WSW,245,7.0,17.0,64,0.00,,,0.32,,2013-02-11 16:53:00,
2013-02-11 12:02:00,33.0,20.0,29.57,WSW,246,7.0,24.0,59,0.00,,,0.32,,2013-02-11 17:02:00,
2013-02-11 12:32:00,33.0,19.0,29.58,WSW,248,13.0,23.0,57,0.00,,,0.32,,2013-02-11 17:32:00,
2013-02-11 13:02:00,33.0,19.0,29.59,West,260,7.0,22.0,56,0.01,,,0.33,,2013-02-11 18:02:00,
2013-02-11 13:32:00,33.0,19.0,29.59,WSW,239,0.0,0.0,55,0.02,,,0.34,,2013-02-11 18:32:00,
2013-02-11 14:02:00,33.0,19.0,29.60,WSW,256,12.0,25.0,55,0.01,,,0.34,,2013-02-11 19:02:00,
2013-02-11 14:32:00,33.0,18.0,29.62,WSW,256,7.0,20.0,54,0.00,,,0.34,,2013-02-11 19:32:00,
2013-02-11 15:02:00,34.0,19.0,29.63,West,269,9.0,20.0,54,0.00,,,0.34,,2013-02-11 20:02:00,
2013-02-11 15:32:00,34.0,19.0,29.64,WSW,242,11.0,26.0,54,0.00,,,0.33,,2013-02-11 20:32:00,
2013-02-11 16:02:00,34.0,19.0,29.66,West,266,10.0,21.0,54,0.01,,,0.34,,2013-02-11 21:02:00,
2013-02-11 16:32:00,34.0,20.0,29.68,WSW,253,11.0,23.0,56,0.00,,,0.29,,2013-02-11 21:32:00,
2013-02-11 17:02:00,34.0,25.0,29.70,West,263,11.0,22.0,68,0.00,,,0.26,,2013-02-11 22:02:00,
2013-02-11 17:12:00,34.0,25.0,29.70,West,263,11.0,22.0,68,0.00,,,0.26,,2013-02-11 22:12:00,
2013-02-11 17:22:00,34.0,25.0,29.70,West,263,11.0,22.0,68,0.00,,,0.26,,2013-02-11 22:22:00,
2013-02-11 17:32:00,34.0,28.0,29.72,West,270,13.0,22.0,79,0.00,,,0.22,,2013-02-11 22:32:00,
2013-02-11 17:42:00,34.0,28.0,29.72,West,270,13.0,22.0,79,0.00,,,0.22,,2013-02-11 22:42:00,
2013-02-11 17:52:00,34.0,28.0,29.72,West,270,13.0,22.0,79,0.00,,,0.22,,2013-02-11 22:52:00,
2013-02-11 18:02:00,34.0,28.0,29.72,West,270,13.0,22.0,79,0.00,,,0.22,,2013-02-11 23:02:00,
2013-02-11 18:11:00,34.0,28.0,29.72,West,270,13.0,22.0,79,0.00,,,0.22,,2013-02-11 23:11:00,
2013-02-11 18:32:00,32.0,24.0,29.74,West,275,9.0,18.0,72,0.00,,,0.16,,2013-02-11 23:32:00,
2013-02-11 18:42:00,32.0,24.0,29.74,West,275,9.0,18.0,72,0.00,,,0.16,,2013-02-11 23:42:00,
2013-02-11 18:52:00,32.0,24.0,29.74,West,275,9.0,18.0,72,0.00,,,0.16,,2013-02-11 23:52:00,
2013-02-11 19:02:00,32.0,23.0,29.76,West,259,11.0,21.0,68,0.00,,,0.14,,2013-02-12 00:02:00,
2013-02-11 19:12:00,32.0,23.0,29.76,West,259,11.0,21.0,68,0.00,,,0.14,,2013-02-12 00:12:00,
2013-02-11 19:22:00,32.0,23.0,29.76,West,259,11.0,21.0,68,0.00,,,0.14,,2013-02-12 00:22:00,
2013-02-11 19:32:00,32.0,22.0,29.78,West,267,10.0,18.0,67,0.00,,,0.13,,2013-02-12 00:32:00,
2013-02-11 19:42:00,32.0,22.0,29.78,West,267,10.0,18.0,67,0.00,,,0.13,,2013-02-12 00:42:00,
2013-02-11 19:52:00,32.0,22.0,29.78,West,267,10.0,18.0,67,0.00,,,0.13,,2013-02-12 00:52:00,
2013-02-11 20:02:00,32.0,25.0,29.80,West,281,9.0,20.0,76,0.00,,,0.11,,2013-02-12 01:02:00,
2013-02-11 20:11:00,32.0,25.0,29.80,West,281,9.0,20.0,76,0.00,,,0.11,,2013-02-12 01:11:00,
2013-02-11 20:22:00,32.0,25.0,29.80,West,281,9.0,20.0,76,0.00,,,0.11,,2013-02-12 01:22:00,
2013-02-11 20:32:00,32.0,27.0,29.80,West,271,5.0,21.0,81,0.00,,,0.10,,2013-02-12 01:32:00,
2013-02-11 20:42:00,32.0,27.0,29.80,West,271,5.0,21.0,81,0.00,,,0.10,,2013-02-12 01:42:00,
2013-02-11 20:52:00,32.0,27.0,29.80,West,271,5.0,21.0,81,0.00,,,0.10,,2013-02-12 01:52:00,
2013-02-11 21:02:00,31.0,26.0,29.81,WNW,287,4.0,15.0,81,0.00,,,0.07,,2013-02-12 02:02:00,
2013-02-11 21:12:00,31.0,26.0,29.81,WNW,287,4.0,15.0,81,0.00,,,0.07,,2013-02-12 02:12:00,
2013-02-11 21:22:00,31.0,26.0,29.81,WNW,287,4.0,15.0,81,0.00,,,0.07,,2013-02-12 02:22:00,
2013-02-11 21:32:00,31.0,26.0,29.83,West,270,9.0,17.0,81,0.00,,,0.06,,2013-02-12 02:32:00,
2013-02-11 21:42:00,31.0,26.0,29.83,West,270,9.0,17.0,81,0.00,,,0.06,,2013-02-12 02:42:00,
2013-02-11 21:53:00,31.0,26.0,29.83,West,270,9.0,17.0,81,0.00,,,0.06,,2013-02-12 02:53:00,
2013-02-11 22:02:00,31.0,26.0,29.84,West,279,6.0,16.0,81,0.00,,,0.05,,2013-02-12 03:02:00,
2013-02-11 22:11:00,31.0,26.0,29.84,West,279,6.0,16.0,81,0.00,,,0.05,,2013-02-12 03:11:00,
2013-02-11 22:21:00,31.0,26.0,29.84,West,279,6.0,16.0,81,0.00,,,0.05,,2013-02-12 03:21:00,
2013-02-11 22:32:00,30.0,25.0,29.85,West,277,5.0,12.0,80,0.00,,,0.05,,2013-02-12 03:32:00,
2013-02-11 22:42:00,30.0,25.0,29.85,West,277,5.0,12.0,80,0.00,,,0.05,,2013-02-12 03:42:00,
2013-02-11 22:52:00,30.0,25.0,29.85,West,277,5.0,12.0,80,0.00,,,0.05,,2013-02-12 03:52:00,
2013-02-11 23:01:00,30.0,25.0,29.85,NNW,341,7.0,20.0,80,0.00,,,0.05,,2013-02-12 04:01:00,
2013-02-11 23:11:00,30.0,25.0,29.85,NNW,341,7.0,20.0,80,0.00,,,0.05,,2013-02-12 04:11:00,
2013-02-11 23:21:00,30.0,25.0,29.85,NNW,341,7.0,20.0,80,0.00,,,0.05,,2013-02-12 04:21:00,
2013-02-11 23:32:00,30.0,25.0,29.86,West,272,6.0,17.0,80,0.00,,,0.05,,2013-02-12 04:32:00,
2013-02-11 23:42:00,30.0,25.0,29.86,West,272,6.0,17.0,80,0.00,,,0.05,,2013-02-12 04:42:00,
2013-02-11 23:52:00,30.0,25.0,29.86,West,272,6.0,17.0,80,0.00,,,0.05,,2013-02-12 04:52:00,